Jackson Hole Airport
KJAC : now visible

Airfield :











YOU CAN JOIN US ON...

 
LOGIN :

Register | Disclaimer

   EN    FR    IT 

 









Legend :    VFR   Marginal VFR   IFR   Intensive IFR   Very Intensive IFR
Visi :
Ceiling :
>= 8 km
>= 3000ft
5 to 8 km
1000 to 3000 ft
1500m to 5 km
500 to 1000 ft
800 to 1500m
200 to 500 ft
< 800m
< 200 ft
Symbols :   Thunderstorms  Fog  Heavy snow  Heavy precipitations  Wind > 20 kt






- Airport Elevation : 6451 ft
- IATA code : JAC


KJAC - Jackson Hole

CURRENT METAR :
  • 020956Z AUTO 36004KT 10SM CLR 06/03 A3016 RMK AO2 SLP169 T00560033

EXPIRED METARs :
  • 020856Z AUTO 00000KT 10SM CLR 07/05 A3015 RMK AO2 SLP168 T00720050 51002
  • 012156Z 11009KT 10SM CLR 23/10 A3013 RMK AO2 TSE45 SLP156 T02280100
  • 020756Z AUTO 00000KT 10SM CLR 07/03 A3014 RMK AO2 SLP169 T00670028

TAF KJAC
Valid from the 02 at 06:00 until the 03 at 06:00 UTC


020537Z 0206/0306 19009KT P6SM FEW100 SCT200
FM021000 17006KT P6SM VCSH SCT080 BKN180
FM021700 20009KT P6SM VCSH SCT080 BKN120
PROB30 0220/0224 VRB20G28KT -TSRA SCT050 BKN080CB
FM030200 36007KT P6SM SCT110 SCT200
KZLC FIR / North America



MET'MAP, your aeronautical weather chart ! - Copyright ORBIFLY December 2007 - Disclaimer

ORBIFLY MET'MAP TEAM :

Programming & Development : Alexandra Zaïnal
Original concept : Baudouin d'Aumeries
Technical & hardware support : Manuel Goepfert
Assistance : Marc-Olivier Méhu




SOURCES & CREDITS :

   NOAA       Earth
Advisory